sensor_id;sensor_type;location;lat;lon;timestamp;P1;durP1;ratioP1;P2;durP2;ratioP2
61487;SDS011;47351;53.326;-6.298;2022-12-11T00:02:01;29.70;;;19.50;;
61487;SDS011;47351;53.326;-6.298;2022-12-11T00:04:54;31.30;;;20.40;;
61487;SDS011;47351;53.326;-6.298;2022-12-11T00:07:46;29.70;;;19.30;;
61487;SDS011;47351;53.326;-6.298;2022-12-11T00:10:39;28.50;;;19.40;;
61487;SDS011;47351;53.326;-6.298;2022-12-11T00:13:38;33.10;;;21.80;;
61487;SDS011;47351;53.326;-6.298;2022-12-11T00:16:31;31.20;;;21.50;;
61487;SDS011;47351;53.326;-6.298;2022-12-11T00:19:23;31.50;;;20.60;;
61487;SDS011;47351;53.326;-6.298;2022-12-11T00:22:15;28.60;;;19.80;;
61487;SDS011;47351;53.326;-6.298;2022-12-11T00:25:08;29.20;;;20.20;;
61487;SDS011;47351;53.326;-6.298;2022-12-11T00:28:01;27.90;;;18.80;;
61487;SDS011;47351;53.326;-6.298;2022-12-11T00:30:53;26.70;;;19.20;;
61487;SDS011;47351;53.326;-6.298;2022-12-11T00:33:46;28.70;;;20.00;;
61487;SDS011;47351;53.326;-6.298;2022-12-11T00:36:40;25.30;;;19.00;;
61487;SDS011;47351;53.326;-6.298;2022-12-11T00:39:32;27.60;;;20.20;;
61487;SDS011;47351;53.326;-6.298;2022-12-11T00:42:27;28.80;;;19.80;;
61487;SDS011;47351;53.326;-6.298;2022-12-11T00:45:21;29.10;;;20.80;;
61487;SDS011;47351;53.326;-6.298;2022-12-11T00:48:13;28.00;;;21.00;;
61487;SDS011;47351;53.326;-6.298;2022-12-11T00:51:06;25.00;;;19.20;;
61487;SDS011;47351;53.326;-6.298;2022-12-11T00:53:59;25.70;;;18.90;;
61487;SDS011;47351;53.326;-6.298;2022-12-11T00:56:52;28.20;;;19.60;;
61487;SDS011;47351;53.326;-6.298;2022-12-11T00:59:46;26.20;;;19.50;;
61487;SDS011;47351;53.326;-6.298;2022-12-11T01:02:38;26.30;;;20.00;;
61487;SDS011;47351;53.326;-6.298;2022-12-11T01:05:30;30.50;;;21.00;;
61487;SDS011;47351;53.326;-6.298;2022-12-11T01:08:23;29.60;;;22.90;;
61487;SDS011;47351;53.326;-6.298;2022-12-11T01:11:15;30.20;;;22.00;;
61487;SDS011;47351;53.326;-6.298;2022-12-11T01:14:09;31.80;;;22.00;;
61487;SDS011;47351;53.326;-6.298;2022-12-11T01:17:01;28.70;;;20.80;;
61487;SDS011;47351;53.326;-6.298;2022-12-11T01:19:54;28.00;;;20.20;;
61487;SDS011;47351;53.326;-6.298;2022-12-11T01:22:46;28.20;;;20.20;;
61487;SDS011;47351;53.326;-6.298;2022-12-11T01:25:41;26.70;;;20.20;;
61487;SDS011;47351;53.326;-6.298;2022-12-11T01:28:33;27.60;;;20.10;;
61487;SDS011;47351;53.326;-6.298;2022-12-11T01:31:26;29.60;;;20.90;;
61487;SDS011;47351;53.326;-6.298;2022-12-11T01:34:18;32.10;;;22.20;;
61487;SDS011;47351;53.326;-6.298;2022-12-11T01:37:11;29.10;;;21.60;;
61487;SDS011;47351;53.326;-6.298;2022-12-11T01:40:04;29.10;;;21.30;;
61487;SDS011;47351;53.326;-6.298;2022-12-11T01:42:57;29.50;;;20.50;;
61487;SDS011;47351;53.326;-6.298;2022-12-11T01:45:50;27.20;;;19.90;;
61487;SDS011;47351;53.326;-6.298;2022-12-11T01:48:42;27.10;;;19.70;;
61487;SDS011;47351;53.326;-6.298;2022-12-11T01:51:35;27.30;;;19.50;;
61487;SDS011;47351;53.326;-6.298;2022-12-11T01:54:33;24.30;;;17.60;;
61487;SDS011;47351;53.326;-6.298;2022-12-11T01:57:26;26.70;;;19.10;;
61487;SDS011;47351;53.326;-6.298;2022-12-11T02:00:19;25.40;;;19.40;;
61487;SDS011;47351;53.326;-6.298;2022-12-11T02:03:11;24.30;;;19.20;;
61487;SDS011;47351;53.326;-6.298;2022-12-11T02:06:04;26.20;;;19.90;;
61487;SDS011;47351;53.326;-6.298;2022-12-11T02:09:11;24.80;;;18.70;;
61487;SDS011;47351;53.326;-6.298;2022-12-11T02:12:06;23.70;;;18.00;;
61487;SDS011;47351;53.326;-6.298;2022-12-11T02:15:07;23.80;;;17.60;;
61487;SDS011;47351;53.326;-6.298;2022-12-11T02:21:04;22.70;;;16.60;;
61487;SDS011;47351;53.326;-6.298;2022-12-11T02:27:25;22.80;;;17.00;;
61487;SDS011;47351;53.326;-6.298;2022-12-11T02:30:21;24.60;;;18.20;;
61487;SDS011;47351;53.326;-6.298;2022-12-11T02:33:14;24.60;;;18.20;;
61487;SDS011;47351;53.326;-6.298;2022-12-11T02:36:11;22.80;;;17.20;;
61487;SDS011;47351;53.326;-6.298;2022-12-11T02:39:06;24.80;;;17.60;;
61487;SDS011;47351;53.326;-6.298;2022-12-11T02:42:02;24.20;;;17.10;;
61487;SDS011;47351;53.326;-6.298;2022-12-11T02:44:56;24.90;;;17.00;;
61487;SDS011;47351;53.326;-6.298;2022-12-11T02:47:50;25.10;;;17.10;;
61487;SDS011;47351;53.326;-6.298;2022-12-11T02:50:45;25.40;;;17.40;;
61487;SDS011;47351;53.326;-6.298;2022-12-11T02:53:39;25.40;;;18.60;;
61487;SDS011;47351;53.326;-6.298;2022-12-11T02:56:35;24.00;;;17.40;;
61487;SDS011;47351;53.326;-6.298;2022-12-11T02:59:32;31.50;;;22.50;;
61487;SDS011;47351;53.326;-6.298;2022-12-11T03:02:25;37.40;;;27.00;;
61487;SDS011;47351;53.326;-6.298;2022-12-11T03:05:18;30.60;;;21.50;;
61487;SDS011;47351;53.326;-6.298;2022-12-11T03:08:10;26.60;;;20.60;;
61487;SDS011;47351;53.326;-6.298;2022-12-11T03:11:08;22.30;;;16.70;;
61487;SDS011;47351;53.326;-6.298;2022-12-11T03:14:00;22.10;;;17.60;;
61487;SDS011;47351;53.326;-6.298;2022-12-11T03:16:54;22.70;;;17.10;;
61487;SDS011;47351;53.326;-6.298;2022-12-11T03:19:54;24.80;;;17.10;;
61487;SDS011;47351;53.326;-6.298;2022-12-11T03:22:55;23.70;;;16.80;;
61487;SDS011;47351;53.326;-6.298;2022-12-11T03:25:53;29.00;;;20.70;;
61487;SDS011;47351;53.326;-6.298;2022-12-11T03:28:47;32.10;;;23.10;;
61487;SDS011;47351;53.326;-6.298;2022-12-11T03:31:45;34.00;;;22.30;;
61487;SDS011;47351;53.326;-6.298;2022-12-11T03:34:43;29.20;;;20.60;;
61487;SDS011;47351;53.326;-6.298;2022-12-11T03:37:44;30.20;;;21.90;;
61487;SDS011;47351;53.326;-6.298;2022-12-11T03:40:40;28.50;;;20.70;;
61487;SDS011;47351;53.326;-6.298;2022-12-11T03:43:35;24.30;;;19.00;;
61487;SDS011;47351;53.326;-6.298;2022-12-11T03:46:30;25.70;;;18.00;;
61487;SDS011;47351;53.326;-6.298;2022-12-11T03:49:25;24.50;;;19.10;;
61487;SDS011;47351;53.326;-6.298;2022-12-11T03:52:23;25.00;;;18.30;;
61487;SDS011;47351;53.326;-6.298;2022-12-11T03:55:18;26.70;;;19.70;;
61487;SDS011;47351;53.326;-6.298;2022-12-11T03:58:12;23.50;;;17.60;;
61487;SDS011;47351;53.326;-6.298;2022-12-11T04:01:06;21.20;;;16.10;;
61487;SDS011;47351;53.326;-6.298;2022-12-11T04:03:59;20.10;;;14.40;;
61487;SDS011;47351;53.326;-6.298;2022-12-11T04:06:55;21.40;;;15.40;;
61487;SDS011;47351;53.326;-6.298;2022-12-11T04:09:47;19.60;;;14.80;;
61487;SDS011;47351;53.326;-6.298;2022-12-11T04:12:39;22.00;;;16.20;;
61487;SDS011;47351;53.326;-6.298;2022-12-11T04:15:33;20.40;;;14.60;;
61487;SDS011;47351;53.326;-6.298;2022-12-11T04:18:30;21.10;;;15.80;;
61487;SDS011;47351;53.326;-6.298;2022-12-11T04:21:54;21.90;;;16.70;;
61487;SDS011;47351;53.326;-6.298;2022-12-11T04:25:05;19.80;;;15.90;;
61487;SDS011;47351;53.326;-6.298;2022-12-11T04:27:58;21.20;;;16.30;;
61487;SDS011;47351;53.326;-6.298;2022-12-11T04:30:51;21.40;;;15.30;;
61487;SDS011;47351;53.326;-6.298;2022-12-11T04:33:43;22.00;;;15.80;;
61487;SDS011;47351;53.326;-6.298;2022-12-11T04:36:36;20.40;;;13.80;;
61487;SDS011;47351;53.326;-6.298;2022-12-11T04:39:28;20.40;;;15.20;;
61487;SDS011;47351;53.326;-6.298;2022-12-11T04:42:21;19.90;;;15.40;;
61487;SDS011;47351;53.326;-6.298;2022-12-11T04:45:13;21.30;;;16.10;;
61487;SDS011;47351;53.326;-6.298;2022-12-11T04:48:06;20.40;;;16.50;;
61487;SDS011;47351;53.326;-6.298;2022-12-11T04:50:58;20.60;;;15.40;;
61487;SDS011;47351;53.326;-6.298;2022-12-11T04:53:51;20.00;;;14.90;;
61487;SDS011;47351;53.326;-6.298;2022-12-11T04:56:43;19.20;;;14.30;;
61487;SDS011;47351;53.326;-6.298;2022-12-11T04:59:36;18.90;;;13.60;;
61487;SDS011;47351;53.326;-6.298;2022-12-11T05:02:28;19.00;;;14.20;;
61487;SDS011;47351;53.326;-6.298;2022-12-11T05:05:23;17.30;;;13.90;;
61487;SDS011;47351;53.326;-6.298;2022-12-11T05:08:16;19.20;;;15.00;;
61487;SDS011;47351;53.326;-6.298;2022-12-11T05:11:09;21.30;;;16.20;;
61487;SDS011;47351;53.326;-6.298;2022-12-11T05:14:02;19.60;;;15.20;;
61487;SDS011;47351;53.326;-6.298;2022-12-11T05:16:55;20.20;;;15.40;;
61487;SDS011;47351;53.326;-6.298;2022-12-11T05:19:48;19.80;;;15.00;;
61487;SDS011;47351;53.326;-6.298;2022-12-11T05:22:41;20.40;;;14.50;;
61487;SDS011;47351;53.326;-6.298;2022-12-11T05:25:33;17.90;;;13.80;;
61487;SDS011;47351;53.326;-6.298;2022-12-11T05:28:26;18.70;;;14.10;;
61487;SDS011;47351;53.326;-6.298;2022-12-11T05:31:19;20.00;;;14.90;;
61487;SDS011;47351;53.326;-6.298;2022-12-11T05:34:13;20.00;;;15.20;;
61487;SDS011;47351;53.326;-6.298;2022-12-11T05:37:05;21.60;;;15.40;;
61487;SDS011;47351;53.326;-6.298;2022-12-11T05:39:57;20.10;;;15.20;;
61487;SDS011;47351;53.326;-6.298;2022-12-11T05:42:50;19.30;;;15.40;;
61487;SDS011;47351;53.326;-6.298;2022-12-11T05:45:42;19.70;;;15.70;;
61487;SDS011;47351;53.326;-6.298;2022-12-11T05:48:34;17.90;;;14.40;;
61487;SDS011;47351;53.326;-6.298;2022-12-11T05:51:27;18.10;;;13.30;;
61487;SDS011;47351;53.326;-6.298;2022-12-11T05:54:22;18.70;;;14.20;;
61487;SDS011;47351;53.326;-6.298;2022-12-11T05:57:14;18.30;;;13.20;;
61487;SDS011;47351;53.326;-6.298;2022-12-11T06:00:07;17.00;;;13.30;;
61487;SDS011;47351;53.326;-6.298;2022-12-11T06:03:00;16.80;;;13.30;;
61487;SDS011;47351;53.326;-6.298;2022-12-11T06:05:53;20.30;;;14.10;;
61487;SDS011;47351;53.326;-6.298;2022-12-11T06:08:45;17.50;;;13.10;;
61487;SDS011;47351;53.326;-6.298;2022-12-11T06:11:40;18.80;;;14.40;;
61487;SDS011;47351;53.326;-6.298;2022-12-11T06:14:32;18.00;;;14.20;;
61487;SDS011;47351;53.326;-6.298;2022-12-11T06:17:24;16.80;;;12.90;;
61487;SDS011;47351;53.326;-6.298;2022-12-11T06:20:17;15.00;;;11.50;;
61487;SDS011;47351;53.326;-6.298;2022-12-11T06:23:09;14.80;;;12.00;;
61487;SDS011;47351;53.326;-6.298;2022-12-11T06:26:03;17.80;;;12.70;;
61487;SDS011;47351;53.326;-6.298;2022-12-11T06:28:56;16.70;;;12.60;;
61487;SDS011;47351;53.326;-6.298;2022-12-11T06:31:48;18.20;;;13.40;;
61487;SDS011;47351;53.326;-6.298;2022-12-11T06:34:41;20.80;;;13.30;;
61487;SDS011;47351;53.326;-6.298;2022-12-11T06:37:33;17.80;;;13.60;;
61487;SDS011;47351;53.326;-6.298;2022-12-11T06:40:25;17.90;;;13.60;;
61487;SDS011;47351;53.326;-6.298;2022-12-11T06:43:18;16.40;;;13.50;;
61487;SDS011;47351;53.326;-6.298;2022-12-11T06:46:11;19.20;;;14.40;;
61487;SDS011;47351;53.326;-6.298;2022-12-11T06:49:05;17.00;;;12.00;;
61487;SDS011;47351;53.326;-6.298;2022-12-11T06:51:57;17.50;;;12.20;;
61487;SDS011;47351;53.326;-6.298;2022-12-11T06:54:49;16.30;;;11.80;;
61487;SDS011;47351;53.326;-6.298;2022-12-11T06:57:42;16.00;;;12.70;;
61487;SDS011;47351;53.326;-6.298;2022-12-11T07:00:35;14.90;;;12.50;;
61487;SDS011;47351;53.326;-6.298;2022-12-11T07:03:27;16.20;;;12.30;;
61487;SDS011;47351;53.326;-6.298;2022-12-11T07:06:20;14.80;;;11.20;;
61487;SDS011;47351;53.326;-6.298;2022-12-11T07:09:12;15.30;;;12.00;;
61487;SDS011;47351;53.326;-6.298;2022-12-11T07:12:05;15.00;;;11.50;;
61487;SDS011;47351;53.326;-6.298;2022-12-11T07:14:58;12.80;;;10.40;;
61487;SDS011;47351;53.326;-6.298;2022-12-11T07:17:51;14.30;;;10.30;;
61487;SDS011;47351;53.326;-6.298;2022-12-11T07:20:43;15.30;;;11.50;;
61487;SDS011;47351;53.326;-6.298;2022-12-11T07:23:36;16.60;;;12.50;;
61487;SDS011;47351;53.326;-6.298;2022-12-11T07:26:28;16.50;;;13.10;;
61487;SDS011;47351;53.326;-6.298;2022-12-11T07:29:21;14.80;;;11.30;;
61487;SDS011;47351;53.326;-6.298;2022-12-11T07:32:13;13.80;;;10.50;;
61487;SDS011;47351;53.326;-6.298;2022-12-11T07:35:06;16.30;;;12.10;;
61487;SDS011;47351;53.326;-6.298;2022-12-11T07:37:59;17.60;;;13.40;;
61487;SDS011;47351;53.326;-6.298;2022-12-11T07:40:51;15.10;;;13.30;;
61487;SDS011;47351;53.326;-6.298;2022-12-11T07:43:44;16.70;;;12.80;;
61487;SDS011;47351;53.326;-6.298;2022-12-11T07:46:36;16.40;;;11.50;;
61487;SDS011;47351;53.326;-6.298;2022-12-11T07:49:29;14.90;;;11.30;;
61487;SDS011;47351;53.326;-6.298;2022-12-11T07:52:21;14.00;;;10.60;;
61487;SDS011;47351;53.326;-6.298;2022-12-11T07:55:14;13.00;;;9.80;;
61487;SDS011;47351;53.326;-6.298;2022-12-11T07:58:06;13.00;;;10.00;;
61487;SDS011;47351;53.326;-6.298;2022-12-11T08:00:59;13.50;;;10.00;;
61487;SDS011;47351;53.326;-6.298;2022-12-11T08:03:51;12.70;;;9.70;;
61487;SDS011;47351;53.326;-6.298;2022-12-11T08:06:44;14.20;;;10.40;;
61487;SDS011;47351;53.326;-6.298;2022-12-11T08:09:43;12.70;;;9.20;;
61487;SDS011;47351;53.326;-6.298;2022-12-11T08:12:35;14.00;;;10.10;;
61487;SDS011;47351;53.326;-6.298;2022-12-11T08:15:28;13.90;;;10.20;;
61487;SDS011;47351;53.326;-6.298;2022-12-11T08:18:20;13.90;;;11.10;;
61487;SDS011;47351;53.326;-6.298;2022-12-11T08:21:13;19.90;;;11.50;;
61487;SDS011;47351;53.326;-6.298;2022-12-11T08:24:06;15.70;;;12.80;;
61487;SDS011;47351;53.326;-6.298;2022-12-11T08:26:59;16.70;;;12.20;;
61487;SDS011;47351;53.326;-6.298;2022-12-11T08:29:51;15.10;;;11.90;;
61487;SDS011;47351;53.326;-6.298;2022-12-11T08:32:44;17.60;;;13.10;;
61487;SDS011;47351;53.326;-6.298;2022-12-11T08:35:38;16.80;;;13.10;;
61487;SDS011;47351;53.326;-6.298;2022-12-11T08:38:31;16.70;;;13.10;;
61487;SDS011;47351;53.326;-6.298;2022-12-11T08:41:24;20.70;;;13.90;;
61487;SDS011;47351;53.326;-6.298;2022-12-11T08:44:18;18.20;;;12.90;;
61487;SDS011;47351;53.326;-6.298;2022-12-11T08:47:13;17.70;;;14.00;;
61487;SDS011;47351;53.326;-6.298;2022-12-11T08:50:05;15.30;;;10.90;;
61487;SDS011;47351;53.326;-6.298;2022-12-11T08:52:58;13.20;;;10.50;;
61487;SDS011;47351;53.326;-6.298;2022-12-11T08:55:50;14.00;;;9.80;;
61487;SDS011;47351;53.326;-6.298;2022-12-11T08:58:43;12.70;;;9.80;;
61487;SDS011;47351;53.326;-6.298;2022-12-11T09:01:35;14.10;;;10.70;;
61487;SDS011;47351;53.326;-6.298;2022-12-11T09:04:27;16.30;;;11.20;;
61487;SDS011;47351;53.326;-6.298;2022-12-11T09:07:20;13.50;;;10.40;;
61487;SDS011;47351;53.326;-6.298;2022-12-11T09:10:12;14.90;;;10.90;;
61487;SDS011;47351;53.326;-6.298;2022-12-11T09:13:04;17.60;;;13.20;;
61487;SDS011;47351;53.326;-6.298;2022-12-11T09:15:57;13.90;;;11.10;;
61487;SDS011;47351;53.326;-6.298;2022-12-11T09:18:50;14.00;;;10.70;;
61487;SDS011;47351;53.326;-6.298;2022-12-11T09:21:46;15.40;;;11.30;;
61487;SDS011;47351;53.326;-6.298;2022-12-11T09:24:39;17.20;;;12.10;;
61487;SDS011;47351;53.326;-6.298;2022-12-11T09:27:32;16.30;;;13.00;;
61487;SDS011;47351;53.326;-6.298;2022-12-11T09:30:25;14.50;;;12.50;;
61487;SDS011;47351;53.326;-6.298;2022-12-11T09:33:17;15.90;;;12.30;;
61487;SDS011;47351;53.326;-6.298;2022-12-11T09:36:09;19.60;;;13.00;;
61487;SDS011;47351;53.326;-6.298;2022-12-11T09:39:03;12.80;;;10.20;;
61487;SDS011;47351;53.326;-6.298;2022-12-11T09:41:58;14.30;;;9.10;;
61487;SDS011;47351;53.326;-6.298;2022-12-11T09:44:57;14.30;;;10.50;;
61487;SDS011;47351;53.326;-6.298;2022-12-11T09:47:51;15.40;;;10.50;;
61487;SDS011;47351;53.326;-6.298;2022-12-11T09:50:44;14.10;;;9.10;;
61487;SDS011;47351;53.326;-6.298;2022-12-11T09:53:40;14.40;;;8.20;;
61487;SDS011;47351;53.326;-6.298;2022-12-11T09:56:32;12.70;;;8.10;;
61487;SDS011;47351;53.326;-6.298;2022-12-11T09:59:33;10.20;;;7.50;;
61487;SDS011;47351;53.326;-6.298;2022-12-11T10:02:36;12.50;;;7.90;;
61487;SDS011;47351;53.326;-6.298;2022-12-11T10:05:40;11.60;;;7.90;;
61487;SDS011;47351;53.326;-6.298;2022-12-11T10:08:40;11.10;;;7.50;;
61487;SDS011;47351;53.326;-6.298;2022-12-11T10:11:45;9.30;;;7.30;;
61487;SDS011;47351;53.326;-6.298;2022-12-11T10:15:03;12.20;;;8.90;;
61487;SDS011;47351;53.326;-6.298;2022-12-11T10:18:08;11.80;;;9.00;;
61487;SDS011;47351;53.326;-6.298;2022-12-11T10:21:05;15.30;;;10.70;;
61487;SDS011;47351;53.326;-6.298;2022-12-11T10:23:59;13.90;;;9.40;;
61487;SDS011;47351;53.326;-6.298;2022-12-11T10:27:00;26.10;;;18.30;;
61487;SDS011;47351;53.326;-6.298;2022-12-11T10:30:06;21.90;;;15.40;;
61487;SDS011;47351;53.326;-6.298;2022-12-11T10:33:05;24.60;;;17.80;;
61487;SDS011;47351;53.326;-6.298;2022-12-11T10:36:06;25.40;;;17.70;;
61487;SDS011;47351;53.326;-6.298;2022-12-11T10:38:59;22.80;;;15.70;;
61487;SDS011;47351;53.326;-6.298;2022-12-11T10:41:52;30.20;;;20.80;;
61487;SDS011;47351;53.326;-6.298;2022-12-11T10:44:55;48.40;;;30.90;;
61487;SDS011;47351;53.326;-6.298;2022-12-11T10:47:49;21.70;;;15.60;;
61487;SDS011;47351;53.326;-6.298;2022-12-11T10:51:00;34.80;;;20.70;;
61487;SDS011;47351;53.326;-6.298;2022-12-11T10:53:56;31.40;;;21.90;;
61487;SDS011;47351;53.326;-6.298;2022-12-11T10:56:55;30.60;;;23.00;;
61487;SDS011;47351;53.326;-6.298;2022-12-11T10:59:48;15.30;;;11.10;;
61487;SDS011;47351;53.326;-6.298;2022-12-11T11:02:43;17.20;;;11.60;;
61487;SDS011;47351;53.326;-6.298;2022-12-11T11:05:36;18.20;;;14.20;;
61487;SDS011;47351;53.326;-6.298;2022-12-11T11:08:39;17.70;;;13.10;;
61487;SDS011;47351;53.326;-6.298;2022-12-11T11:11:34;23.40;;;16.50;;
61487;SDS011;47351;53.326;-6.298;2022-12-11T11:14:27;30.80;;;21.60;;
61487;SDS011;47351;53.326;-6.298;2022-12-11T11:17:19;27.70;;;19.50;;
61487;SDS011;47351;53.326;-6.298;2022-12-11T11:20:13;23.60;;;18.10;;
61487;SDS011;47351;53.326;-6.298;2022-12-11T11:23:10;14.70;;;10.70;;
61487;SDS011;47351;53.326;-6.298;2022-12-11T11:26:06;12.20;;;9.10;;
61487;SDS011;47351;53.326;-6.298;2022-12-11T11:29:01;19.10;;;14.00;;
61487;SDS011;47351;53.326;-6.298;2022-12-11T11:31:54;26.20;;;18.90;;
61487;SDS011;47351;53.326;-6.298;2022-12-11T11:34:46;28.60;;;18.10;;
61487;SDS011;47351;53.326;-6.298;2022-12-11T11:37:39;39.10;;;26.20;;
61487;SDS011;47351;53.326;-6.298;2022-12-11T11:40:35;19.90;;;13.90;;
61487;SDS011;47351;53.326;-6.298;2022-12-11T11:43:33;32.00;;;23.40;;
61487;SDS011;47351;53.326;-6.298;2022-12-11T11:46:32;32.40;;;22.20;;
61487;SDS011;47351;53.326;-6.298;2022-12-11T11:49:30;48.60;;;31.50;;
61487;SDS011;47351;53.326;-6.298;2022-12-11T11:52:35;39.10;;;26.60;;
61487;SDS011;47351;53.326;-6.298;2022-12-11T11:55:36;19.70;;;15.40;;
61487;SDS011;47351;53.326;-6.298;2022-12-11T11:58:38;12.00;;;9.60;;
61487;SDS011;47351;53.326;-6.298;2022-12-11T12:01:34;12.80;;;10.20;;
61487;SDS011;47351;53.326;-6.298;2022-12-11T12:04:28;10.30;;;8.10;;
61487;SDS011;47351;53.326;-6.298;2022-12-11T12:07:28;10.10;;;7.70;;
61487;SDS011;47351;53.326;-6.298;2022-12-11T12:10:30;8.30;;;6.80;;
61487;SDS011;47351;53.326;-6.298;2022-12-11T12:13:34;9.80;;;8.10;;
61487;SDS011;47351;53.326;-6.298;2022-12-11T12:16:39;7.80;;;6.20;;
61487;SDS011;47351;53.326;-6.298;2022-12-11T12:19:44;9.30;;;7.50;;
61487;SDS011;47351;53.326;-6.298;2022-12-11T12:22:55;12.80;;;10.70;;
61487;SDS011;47351;53.326;-6.298;2022-12-11T12:25:56;19.70;;;16.80;;
61487;SDS011;47351;53.326;-6.298;2022-12-11T12:28:58;9.70;;;8.10;;
61487;SDS011;47351;53.326;-6.298;2022-12-11T12:32:02;16.00;;;13.30;;
61487;SDS011;47351;53.326;-6.298;2022-12-11T12:35:03;15.10;;;12.70;;
61487;SDS011;47351;53.326;-6.298;2022-12-11T12:38:07;14.60;;;11.60;;
61487;SDS011;47351;53.326;-6.298;2022-12-11T12:41:06;12.90;;;10.50;;
61487;SDS011;47351;53.326;-6.298;2022-12-11T12:44:13;12.80;;;10.80;;
61487;SDS011;47351;53.326;-6.298;2022-12-11T12:47:08;12.20;;;10.30;;
61487;SDS011;47351;53.326;-6.298;2022-12-11T12:50:05;14.00;;;11.00;;
61487;SDS011;47351;53.326;-6.298;2022-12-11T12:53:06;13.10;;;10.60;;
61487;SDS011;47351;53.326;-6.298;2022-12-11T12:56:13;14.20;;;11.80;;
61487;SDS011;47351;53.326;-6.298;2022-12-11T12:59:07;13.40;;;10.80;;
61487;SDS011;47351;53.326;-6.298;2022-12-11T13:02:12;13.60;;;10.70;;
61487;SDS011;47351;53.326;-6.298;2022-12-11T13:05:18;17.20;;;11.80;;
61487;SDS011;47351;53.326;-6.298;2022-12-11T13:08:22;26.40;;;16.90;;
61487;SDS011;47351;53.326;-6.298;2022-12-11T13:11:17;36.00;;;20.00;;
61487;SDS011;47351;53.326;-6.298;2022-12-11T13:14:27;20.80;;;15.20;;
61487;SDS011;47351;53.326;-6.298;2022-12-11T13:17:25;15.40;;;12.30;;
61487;SDS011;47351;53.326;-6.298;2022-12-11T13:20:27;12.10;;;9.80;;
61487;SDS011;47351;53.326;-6.298;2022-12-11T13:23:25;14.50;;;11.30;;
61487;SDS011;47351;53.326;-6.298;2022-12-11T13:26:27;13.40;;;9.70;;
61487;SDS011;47351;53.326;-6.298;2022-12-11T13:29:33;15.10;;;11.10;;
61487;SDS011;47351;53.326;-6.298;2022-12-11T13:32:28;16.30;;;12.80;;
61487;SDS011;47351;53.326;-6.298;2022-12-11T13:35:22;18.30;;;14.10;;
61487;SDS011;47351;53.326;-6.298;2022-12-11T13:38:15;17.60;;;14.50;;
61487;SDS011;47351;53.326;-6.298;2022-12-11T13:41:10;21.20;;;17.00;;
61487;SDS011;47351;53.326;-6.298;2022-12-11T13:44:11;22.10;;;17.70;;
61487;SDS011;47351;53.326;-6.298;2022-12-11T13:47:11;22.20;;;17.30;;
61487;SDS011;47351;53.326;-6.298;2022-12-11T13:50:12;21.60;;;17.90;;
61487;SDS011;47351;53.326;-6.298;2022-12-11T13:53:14;19.10;;;14.80;;
61487;SDS011;47351;53.326;-6.298;2022-12-11T13:56:13;17.90;;;15.10;;
61487;SDS011;47351;53.326;-6.298;2022-12-11T13:59:18;17.40;;;13.60;;
61487;SDS011;47351;53.326;-6.298;2022-12-11T14:02:14;17.60;;;14.10;;
61487;SDS011;47351;53.326;-6.298;2022-12-11T14:05:10;17.70;;;14.60;;
61487;SDS011;47351;53.326;-6.298;2022-12-11T14:08:05;19.80;;;16.70;;
61487;SDS011;47351;53.326;-6.298;2022-12-11T14:10:59;19.40;;;15.20;;
61487;SDS011;47351;53.326;-6.298;2022-12-11T14:13:53;22.40;;;16.90;;
61487;SDS011;47351;53.326;-6.298;2022-12-11T14:16:49;19.50;;;15.90;;
61487;SDS011;47351;53.326;-6.298;2022-12-11T14:19:45;19.70;;;16.20;;
61487;SDS011;47351;53.326;-6.298;2022-12-11T14:22:38;20.90;;;16.10;;
61487;SDS011;47351;53.326;-6.298;2022-12-11T14:25:30;17.30;;;13.90;;
61487;SDS011;47351;53.326;-6.298;2022-12-11T14:28:23;21.00;;;16.60;;
61487;SDS011;47351;53.326;-6.298;2022-12-11T14:31:17;22.30;;;17.20;;
61487;SDS011;47351;53.326;-6.298;2022-12-11T14:34:14;23.00;;;18.10;;
61487;SDS011;47351;53.326;-6.298;2022-12-11T14:37:13;22.80;;;17.40;;
61487;SDS011;47351;53.326;-6.298;2022-12-11T14:40:08;26.30;;;20.10;;
61487;SDS011;47351;53.326;-6.298;2022-12-11T14:43:06;20.80;;;16.60;;
61487;SDS011;47351;53.326;-6.298;2022-12-11T14:46:03;26.60;;;17.40;;
61487;SDS011;47351;53.326;-6.298;2022-12-11T14:48:59;22.40;;;16.10;;
61487;SDS011;47351;53.326;-6.298;2022-12-11T14:51:55;28.10;;;20.10;;
61487;SDS011;47351;53.326;-6.298;2022-12-11T14:54:49;22.50;;;17.40;;
61487;SDS011;47351;53.326;-6.298;2022-12-11T14:57:46;26.00;;;18.30;;
61487;SDS011;47351;53.326;-6.298;2022-12-11T15:00:43;24.60;;;18.10;;
61487;SDS011;47351;53.326;-6.298;2022-12-11T15:03:45;25.40;;;18.40;;
61487;SDS011;47351;53.326;-6.298;2022-12-11T15:06:43;25.10;;;19.90;;
61487;SDS011;47351;53.326;-6.298;2022-12-11T15:09:36;28.40;;;21.70;;
61487;SDS011;47351;53.326;-6.298;2022-12-11T15:12:30;35.70;;;25.40;;
61487;SDS011;47351;53.326;-6.298;2022-12-11T15:15:23;26.40;;;19.00;;
61487;SDS011;47351;53.326;-6.298;2022-12-11T15:18:18;27.30;;;19.20;;
61487;SDS011;47351;53.326;-6.298;2022-12-11T15:21:13;23.80;;;19.10;;
61487;SDS011;47351;53.326;-6.298;2022-12-11T15:24:17;23.30;;;18.00;;
61487;SDS011;47351;53.326;-6.298;2022-12-11T15:27:19;24.90;;;19.10;;
61487;SDS011;47351;53.326;-6.298;2022-12-11T15:33:31;24.50;;;18.40;;
61487;SDS011;47351;53.326;-6.298;2022-12-11T15:36:35;24.00;;;18.10;;
61487;SDS011;47351;53.326;-6.298;2022-12-11T15:39:27;24.70;;;18.80;;
61487;SDS011;47351;53.326;-6.298;2022-12-11T15:42:22;24.00;;;18.90;;
61487;SDS011;47351;53.326;-6.298;2022-12-11T15:45:17;24.50;;;17.70;;
61487;SDS011;47351;53.326;-6.298;2022-12-11T15:48:10;23.90;;;19.00;;
61487;SDS011;47351;53.326;-6.298;2022-12-11T15:51:03;27.00;;;20.90;;
61487;SDS011;47351;53.326;-6.298;2022-12-11T15:53:55;27.70;;;21.10;;
61487;SDS011;47351;53.326;-6.298;2022-12-11T15:56:47;31.40;;;21.00;;
61487;SDS011;47351;53.326;-6.298;2022-12-11T15:59:40;41.20;;;29.50;;
61487;SDS011;47351;53.326;-6.298;2022-12-11T16:02:32;30.50;;;22.90;;
61487;SDS011;47351;53.326;-6.298;2022-12-11T16:05:25;26.80;;;20.80;;
61487;SDS011;47351;53.326;-6.298;2022-12-11T16:08:18;32.30;;;24.20;;
61487;SDS011;47351;53.326;-6.298;2022-12-11T16:11:12;36.20;;;27.50;;
61487;SDS011;47351;53.326;-6.298;2022-12-11T16:14:05;34.70;;;26.30;;
61487;SDS011;47351;53.326;-6.298;2022-12-11T16:16:57;40.90;;;31.40;;
61487;SDS011;47351;53.326;-6.298;2022-12-11T16:19:49;36.50;;;28.70;;
61487;SDS011;47351;53.326;-6.298;2022-12-11T16:22:42;39.60;;;30.70;;
61487;SDS011;47351;53.326;-6.298;2022-12-11T16:25:35;40.60;;;30.30;;
61487;SDS011;47351;53.326;-6.298;2022-12-11T16:28:28;46.10;;;35.20;;
61487;SDS011;47351;53.326;-6.298;2022-12-11T16:31:20;38.90;;;30.70;;
61487;SDS011;47351;53.326;-6.298;2022-12-11T16:34:12;35.00;;;26.20;;
61487;SDS011;47351;53.326;-6.298;2022-12-11T16:37:05;25.10;;;18.80;;
61487;SDS011;47351;53.326;-6.298;2022-12-11T16:39:58;30.30;;;23.30;;
61487;SDS011;47351;53.326;-6.298;2022-12-11T16:42:50;29.20;;;22.80;;
61487;SDS011;47351;53.326;-6.298;2022-12-11T16:45:43;37.50;;;29.70;;
61487;SDS011;47351;53.326;-6.298;2022-12-11T16:48:35;36.60;;;28.50;;
61487;SDS011;47351;53.326;-6.298;2022-12-11T16:51:28;39.90;;;30.80;;
61487;SDS011;47351;53.326;-6.298;2022-12-11T16:54:20;32.60;;;24.30;;
61487;SDS011;47351;53.326;-6.298;2022-12-11T16:57:12;28.70;;;21.80;;
61487;SDS011;47351;53.326;-6.298;2022-12-11T17:00:06;30.80;;;23.90;;
61487;SDS011;47351;53.326;-6.298;2022-12-11T17:03:00;30.40;;;22.60;;